sensor_id;sensor_type;location;lat;lon;timestamp;P1;durP1;ratioP1;P2;durP2;ratioP2
18166;SDS011;9208;42.688;23.404;2023-04-25T00:02:01;2.40;;;2.23;;
18166;SDS011;9208;42.688;23.404;2023-04-25T00:04:29;2.20;;;2.00;;
18166;SDS011;9208;42.688;23.404;2023-04-25T00:06:55;2.73;;;2.10;;
18166;SDS011;9208;42.688;23.404;2023-04-25T00:09:20;2.73;;;2.10;;
18166;SDS011;9208;42.688;23.404;2023-04-25T00:11:46;2.60;;;2.40;;
18166;SDS011;9208;42.688;23.404;2023-04-25T00:14:12;2.37;;;2.20;;
18166;SDS011;9208;42.688;23.404;2023-04-25T00:16:37;3.00;;;2.70;;
18166;SDS011;9208;42.688;23.404;2023-04-25T00:19:02;4.07;;;2.40;;
18166;SDS011;9208;42.688;23.404;2023-04-25T00:21:28;2.67;;;2.40;;
18166;SDS011;9208;42.688;23.404;2023-04-25T00:23:54;2.33;;;2.23;;
18166;SDS011;9208;42.688;23.404;2023-04-25T00:26:20;3.00;;;2.43;;
18166;SDS011;9208;42.688;23.404;2023-04-25T00:28:46;2.83;;;2.23;;
18166;SDS011;9208;42.688;23.404;2023-04-25T00:31:12;2.13;;;2.03;;
18166;SDS011;9208;42.688;23.404;2023-04-25T00:33:38;2.40;;;1.90;;
18166;SDS011;9208;42.688;23.404;2023-04-25T00:36:04;1.73;;;1.63;;
18166;SDS011;9208;42.688;23.404;2023-04-25T00:38:30;2.03;;;1.93;;
18166;SDS011;9208;42.688;23.404;2023-04-25T00:40:55;2.00;;;1.80;;
18166;SDS011;9208;42.688;23.404;2023-04-25T00:43:22;2.10;;;1.80;;
18166;SDS011;9208;42.688;23.404;2023-04-25T00:45:51;2.80;;;2.60;;
18166;SDS011;9208;42.688;23.404;2023-04-25T00:48:17;2.70;;;2.50;;
18166;SDS011;9208;42.688;23.404;2023-04-25T00:50:44;2.63;;;2.43;;
18166;SDS011;9208;42.688;23.404;2023-04-25T00:53:17;2.40;;;2.20;;
18166;SDS011;9208;42.688;23.404;2023-04-25T00:55:42;2.10;;;2.00;;
18166;SDS011;9208;42.688;23.404;2023-04-25T00:58:08;3.03;;;2.83;;
18166;SDS011;9208;42.688;23.404;2023-04-25T01:00:33;2.63;;;2.43;;
18166;SDS011;9208;42.688;23.404;2023-04-25T01:02:59;2.67;;;2.47;;
18166;SDS011;9208;42.688;23.404;2023-04-25T01:05:25;2.40;;;2.27;;
18166;SDS011;9208;42.688;23.404;2023-04-25T01:07:50;2.40;;;2.17;;
18166;SDS011;9208;42.688;23.404;2023-04-25T01:10:16;4.13;;;2.37;;
18166;SDS011;9208;42.688;23.404;2023-04-25T01:12:42;2.93;;;2.13;;
18166;SDS011;9208;42.688;23.404;2023-04-25T01:15:08;2.37;;;2.13;;
18166;SDS011;9208;42.688;23.404;2023-04-25T01:17:34;2.40;;;2.20;;
18166;SDS011;9208;42.688;23.404;2023-04-25T01:20:02;2.87;;;2.40;;
18166;SDS011;9208;42.688;23.404;2023-04-25T01:22:29;2.60;;;2.40;;
18166;SDS011;9208;42.688;23.404;2023-04-25T01:24:55;2.43;;;2.30;;
18166;SDS011;9208;42.688;23.404;2023-04-25T01:27:21;2.70;;;2.50;;
18166;SDS011;9208;42.688;23.404;2023-04-25T01:29:47;3.00;;;2.70;;
18166;SDS011;9208;42.688;23.404;2023-04-25T01:32:14;2.70;;;2.50;;
18166;SDS011;9208;42.688;23.404;2023-04-25T01:34:41;2.83;;;2.63;;
18166;SDS011;9208;42.688;23.404;2023-04-25T01:37:06;3.47;;;3.27;;
18166;SDS011;9208;42.688;23.404;2023-04-25T01:39:31;3.63;;;3.33;;
18166;SDS011;9208;42.688;23.404;2023-04-25T01:41:58;3.40;;;3.10;;
18166;SDS011;9208;42.688;23.404;2023-04-25T01:44:24;3.90;;;3.50;;
18166;SDS011;9208;42.688;23.404;2023-04-25T01:46:50;3.73;;;3.43;;
18166;SDS011;9208;42.688;23.404;2023-04-25T01:49:16;2.80;;;2.60;;
18166;SDS011;9208;42.688;23.404;2023-04-25T01:51:43;2.80;;;2.53;;
18166;SDS011;9208;42.688;23.404;2023-04-25T01:54:09;3.27;;;2.73;;
18166;SDS011;9208;42.688;23.404;2023-04-25T01:56:36;2.33;;;2.23;;
18166;SDS011;9208;42.688;23.404;2023-04-25T01:59:03;2.30;;;2.10;;
18166;SDS011;9208;42.688;23.404;2023-04-25T02:01:29;2.47;;;2.30;;
18166;SDS011;9208;42.688;23.404;2023-04-25T02:03:55;2.70;;;2.20;;
18166;SDS011;9208;42.688;23.404;2023-04-25T02:06:20;2.43;;;2.20;;
18166;SDS011;9208;42.688;23.404;2023-04-25T02:08:45;2.33;;;2.20;;
18166;SDS011;9208;42.688;23.404;2023-04-25T02:11:11;3.30;;;2.40;;
18166;SDS011;9208;42.688;23.404;2023-04-25T02:13:36;2.40;;;2.20;;
18166;SDS011;9208;42.688;23.404;2023-04-25T02:16:02;2.43;;;2.23;;
18166;SDS011;9208;42.688;23.404;2023-04-25T02:18:27;2.90;;;2.60;;
18166;SDS011;9208;42.688;23.404;2023-04-25T02:20:53;2.33;;;2.20;;
18166;SDS011;9208;42.688;23.404;2023-04-25T02:23:18;2.63;;;2.40;;
18166;SDS011;9208;42.688;23.404;2023-04-25T02:25:44;2.50;;;2.40;;
18166;SDS011;9208;42.688;23.404;2023-04-25T02:28:09;2.47;;;2.37;;
18166;SDS011;9208;42.688;23.404;2023-04-25T02:30:37;2.80;;;2.60;;
18166;SDS011;9208;42.688;23.404;2023-04-25T02:33:03;2.90;;;2.70;;
18166;SDS011;9208;42.688;23.404;2023-04-25T02:35:28;2.70;;;2.50;;
18166;SDS011;9208;42.688;23.404;2023-04-25T02:37:57;2.80;;;2.60;;
18166;SDS011;9208;42.688;23.404;2023-04-25T02:40:22;2.97;;;2.77;;
18166;SDS011;9208;42.688;23.404;2023-04-25T02:42:47;3.13;;;2.90;;
18166;SDS011;9208;42.688;23.404;2023-04-25T02:45:13;3.10;;;2.90;;
18166;SDS011;9208;42.688;23.404;2023-04-25T02:47:39;4.10;;;3.20;;
18166;SDS011;9208;42.688;23.404;2023-04-25T02:50:04;3.33;;;3.03;;
18166;SDS011;9208;42.688;23.404;2023-04-25T02:52:30;3.73;;;3.43;;
18166;SDS011;9208;42.688;23.404;2023-04-25T02:54:56;3.13;;;2.83;;
18166;SDS011;9208;42.688;23.404;2023-04-25T02:57:21;3.53;;;3.33;;
18166;SDS011;9208;42.688;23.404;2023-04-25T02:59:46;3.23;;;3.03;;
18166;SDS011;9208;42.688;23.404;2023-04-25T03:02:12;3.90;;;3.60;;
18166;SDS011;9208;42.688;23.404;2023-04-25T03:04:37;4.07;;;3.77;;
18166;SDS011;9208;42.688;23.404;2023-04-25T03:07:06;3.80;;;3.50;;
18166;SDS011;9208;42.688;23.404;2023-04-25T03:09:31;3.83;;;3.53;;
18166;SDS011;9208;42.688;23.404;2023-04-25T03:11:56;4.23;;;3.83;;
18166;SDS011;9208;42.688;23.404;2023-04-25T03:14:22;3.60;;;3.40;;
18166;SDS011;9208;42.688;23.404;2023-04-25T03:16:47;3.80;;;3.50;;
18166;SDS011;9208;42.688;23.404;2023-04-25T03:19:13;4.53;;;3.93;;
18166;SDS011;9208;42.688;23.404;2023-04-25T03:21:40;5.33;;;4.83;;
18166;SDS011;9208;42.688;23.404;2023-04-25T03:24:06;5.10;;;4.67;;
18166;SDS011;9208;42.688;23.404;2023-04-25T03:26:31;5.63;;;5.13;;
18166;SDS011;9208;42.688;23.404;2023-04-25T03:28:57;5.23;;;4.33;;
18166;SDS011;9208;42.688;23.404;2023-04-25T03:31:22;5.30;;;4.90;;
18166;SDS011;9208;42.688;23.404;2023-04-25T03:33:48;5.43;;;4.97;;
18166;SDS011;9208;42.688;23.404;2023-04-25T03:36:13;5.17;;;4.77;;
18166;SDS011;9208;42.688;23.404;2023-04-25T03:38:39;5.80;;;5.30;;
18166;SDS011;9208;42.688;23.404;2023-04-25T03:41:06;5.93;;;5.30;;
18166;SDS011;9208;42.688;23.404;2023-04-25T03:43:31;5.20;;;4.80;;
18166;SDS011;9208;42.688;23.404;2023-04-25T03:45:57;5.60;;;5.10;;
18166;SDS011;9208;42.688;23.404;2023-04-25T03:48:22;5.77;;;5.27;;
18166;SDS011;9208;42.688;23.404;2023-04-25T03:50:49;6.00;;;5.50;;
18166;SDS011;9208;42.688;23.404;2023-04-25T03:53:15;5.47;;;5.07;;
18166;SDS011;9208;42.688;23.404;2023-04-25T03:55:40;5.13;;;4.73;;
18166;SDS011;9208;42.688;23.404;2023-04-25T03:58:06;5.40;;;4.90;;
18166;SDS011;9208;42.688;23.404;2023-04-25T04:00:33;5.80;;;5.30;;
18166;SDS011;9208;42.688;23.404;2023-04-25T04:02:58;5.90;;;5.30;;
18166;SDS011;9208;42.688;23.404;2023-04-25T04:05:24;5.73;;;5.27;;
18166;SDS011;9208;42.688;23.404;2023-04-25T04:07:49;6.00;;;5.40;;
18166;SDS011;9208;42.688;23.404;2023-04-25T04:10:15;5.43;;;5.03;;
18166;SDS011;9208;42.688;23.404;2023-04-25T04:12:40;6.40;;;5.90;;
18166;SDS011;9208;42.688;23.404;2023-04-25T04:15:06;7.23;;;6.63;;
18166;SDS011;9208;42.688;23.404;2023-04-25T04:17:32;12.33;;;11.23;;
18166;SDS011;9208;42.688;23.404;2023-04-25T04:19:58;13.67;;;12.47;;
18166;SDS011;9208;42.688;23.404;2023-04-25T04:22:24;10.47;;;9.47;;
18166;SDS011;9208;42.688;23.404;2023-04-25T04:24:49;9.77;;;8.90;;
18166;SDS011;9208;42.688;23.404;2023-04-25T04:27:16;7.57;;;5.97;;
18166;SDS011;9208;42.688;23.404;2023-04-25T04:29:45;5.47;;;5.07;;
18166;SDS011;9208;42.688;23.404;2023-04-25T04:32:11;5.53;;;5.07;;
18166;SDS011;9208;42.688;23.404;2023-04-25T04:34:37;5.03;;;4.53;;
18166;SDS011;9208;42.688;23.404;2023-04-25T04:37:04;5.57;;;4.97;;
18166;SDS011;9208;42.688;23.404;2023-04-25T04:39:30;6.00;;;5.50;;
18166;SDS011;9208;42.688;23.404;2023-04-25T04:41:55;6.80;;;6.20;;
18166;SDS011;9208;42.688;23.404;2023-04-25T04:44:21;6.93;;;6.33;;
18166;SDS011;9208;42.688;23.404;2023-04-25T04:46:46;7.37;;;6.67;;
18166;SDS011;9208;42.688;23.404;2023-04-25T04:49:11;6.73;;;6.13;;
18166;SDS011;9208;42.688;23.404;2023-04-25T04:51:40;6.47;;;5.97;;
18166;SDS011;9208;42.688;23.404;2023-04-25T04:54:06;7.90;;;6.50;;
18166;SDS011;9208;42.688;23.404;2023-04-25T04:56:31;7.43;;;6.73;;
18166;SDS011;9208;42.688;23.404;2023-04-25T04:58:57;8.00;;;7.30;;
18166;SDS011;9208;42.688;23.404;2023-04-25T05:01:23;7.70;;;7.00;;
18166;SDS011;9208;42.688;23.404;2023-04-25T05:03:49;7.13;;;6.53;;
18166;SDS011;9208;42.688;23.404;2023-04-25T05:06:16;9.43;;;8.00;;
18166;SDS011;9208;42.688;23.404;2023-04-25T05:08:42;8.17;;;7.47;;
18166;SDS011;9208;42.688;23.404;2023-04-25T05:11:07;8.27;;;7.53;;
18166;SDS011;9208;42.688;23.404;2023-04-25T05:13:32;8.23;;;7.43;;
18166;SDS011;9208;42.688;23.404;2023-04-25T05:15:58;9.53;;;8.57;;
18166;SDS011;9208;42.688;23.404;2023-04-25T05:18:23;8.70;;;7.90;;
18166;SDS011;9208;42.688;23.404;2023-04-25T05:20:49;7.93;;;7.13;;
18166;SDS011;9208;42.688;23.404;2023-04-25T05:23:14;8.57;;;7.77;;
18166;SDS011;9208;42.688;23.404;2023-04-25T05:25:40;12.77;;;11.40;;
18166;SDS011;9208;42.688;23.404;2023-04-25T05:28:05;10.30;;;9.27;;
18166;SDS011;9208;42.688;23.404;2023-04-25T05:30:31;7.60;;;6.83;;
18166;SDS011;9208;42.688;23.404;2023-04-25T05:32:56;6.53;;;5.83;;
18166;SDS011;9208;42.688;23.404;2023-04-25T05:35:22;5.90;;;5.30;;
18166;SDS011;9208;42.688;23.404;2023-04-25T05:37:47;5.30;;;4.90;;
18166;SDS011;9208;42.688;23.404;2023-04-25T05:40:13;5.67;;;5.17;;
18166;SDS011;9208;42.688;23.404;2023-04-25T05:42:39;4.37;;;4.07;;
18166;SDS011;9208;42.688;23.404;2023-04-25T05:45:04;4.77;;;4.37;;
18166;SDS011;9208;42.688;23.404;2023-04-25T05:47:30;5.40;;;4.90;;
18166;SDS011;9208;42.688;23.404;2023-04-25T05:49:55;4.80;;;4.40;;
18166;SDS011;9208;42.688;23.404;2023-04-25T05:52:21;3.53;;;3.30;;
18166;SDS011;9208;42.688;23.404;2023-04-25T05:54:46;5.40;;;4.10;;
18166;SDS011;9208;42.688;23.404;2023-04-25T05:57:25;4.20;;;3.80;;
18166;SDS011;9208;42.688;23.404;2023-04-25T05:59:51;3.80;;;3.10;;
18166;SDS011;9208;42.688;23.404;2023-04-25T06:02:18;3.23;;;2.90;;
18166;SDS011;9208;42.688;23.404;2023-04-25T06:04:44;3.37;;;3.07;;
18166;SDS011;9208;42.688;23.404;2023-04-25T06:07:09;3.07;;;2.87;;
18166;SDS011;9208;42.688;23.404;2023-04-25T06:09:35;3.73;;;3.10;;
18166;SDS011;9208;42.688;23.404;2023-04-25T06:12:00;3.37;;;3.07;;
18166;SDS011;9208;42.688;23.404;2023-04-25T06:14:26;4.67;;;3.33;;
18166;SDS011;9208;42.688;23.404;2023-04-25T06:16:52;4.67;;;3.60;;
18166;SDS011;9208;42.688;23.404;2023-04-25T06:19:17;4.97;;;3.53;;
18166;SDS011;9208;42.688;23.404;2023-04-25T06:21:43;5.53;;;4.07;;
18166;SDS011;9208;42.688;23.404;2023-04-25T06:24:09;4.97;;;3.87;;
18166;SDS011;9208;42.688;23.404;2023-04-25T06:26:34;8.73;;;4.13;;
18166;SDS011;9208;42.688;23.404;2023-04-25T06:29:00;7.90;;;3.40;;
18166;SDS011;9208;42.688;23.404;2023-04-25T06:31:25;5.80;;;3.40;;
18166;SDS011;9208;42.688;23.404;2023-04-25T06:33:51;7.27;;;3.70;;
18166;SDS011;9208;42.688;23.404;2023-04-25T06:36:22;5.57;;;3.63;;
18166;SDS011;9208;42.688;23.404;2023-04-25T06:38:50;3.60;;;3.30;;
18166;SDS011;9208;42.688;23.404;2023-04-25T06:41:16;4.07;;;3.40;;
18166;SDS011;9208;42.688;23.404;2023-04-25T06:43:42;4.43;;;4.03;;
18166;SDS011;9208;42.688;23.404;2023-04-25T06:46:07;5.23;;;3.60;;
18166;SDS011;9208;42.688;23.404;2023-04-25T06:48:32;4.63;;;4.00;;
18166;SDS011;9208;42.688;23.404;2023-04-25T06:50:58;4.17;;;3.70;;
18166;SDS011;9208;42.688;23.404;2023-04-25T06:53:23;5.27;;;4.30;;
18166;SDS011;9208;42.688;23.404;2023-04-25T06:55:49;5.00;;;4.20;;
18166;SDS011;9208;42.688;23.404;2023-04-25T06:58:15;4.73;;;4.30;;
18166;SDS011;9208;42.688;23.404;2023-04-25T07:00:40;4.97;;;4.47;;
18166;SDS011;9208;42.688;23.404;2023-04-25T07:03:08;6.53;;;4.70;;
18166;SDS011;9208;42.688;23.404;2023-04-25T07:05:33;6.80;;;4.37;;
18166;SDS011;9208;42.688;23.404;2023-04-25T07:07:59;5.97;;;4.30;;
18166;SDS011;9208;42.688;23.404;2023-04-25T07:10:25;5.30;;;4.30;;
18166;SDS011;9208;42.688;23.404;2023-04-25T07:12:50;5.40;;;4.50;;
18166;SDS011;9208;42.688;23.404;2023-04-25T07:15:16;4.50;;;4.10;;
18166;SDS011;9208;42.688;23.404;2023-04-25T07:17:41;4.93;;;4.53;;
18166;SDS011;9208;42.688;23.404;2023-04-25T07:20:07;4.47;;;4.07;;
18166;SDS011;9208;42.688;23.404;2023-04-25T07:22:34;4.97;;;3.87;;
18166;SDS011;9208;42.688;23.404;2023-04-25T07:25:00;4.47;;;4.07;;
18166;SDS011;9208;42.688;23.404;2023-04-25T07:27:25;4.73;;;4.33;;
18166;SDS011;9208;42.688;23.404;2023-04-25T07:29:51;5.47;;;4.70;;
18166;SDS011;9208;42.688;23.404;2023-04-25T07:32:16;4.90;;;4.50;;
18166;SDS011;9208;42.688;23.404;2023-04-25T07:34:41;4.57;;;4.17;;
18166;SDS011;9208;42.688;23.404;2023-04-25T07:37:07;4.90;;;4.40;;
18166;SDS011;9208;42.688;23.404;2023-04-25T07:39:32;4.40;;;3.77;;
18166;SDS011;9208;42.688;23.404;2023-04-25T07:41:58;5.30;;;4.40;;
18166;SDS011;9208;42.688;23.404;2023-04-25T07:44:25;4.97;;;4.57;;
18166;SDS011;9208;42.688;23.404;2023-04-25T07:46:51;6.07;;;4.03;;
18166;SDS011;9208;42.688;23.404;2023-04-25T07:49:16;4.93;;;4.53;;
18166;SDS011;9208;42.688;23.404;2023-04-25T07:51:41;11.67;;;5.03;;
18166;SDS011;9208;42.688;23.404;2023-04-25T07:54:09;5.80;;;4.17;;
18166;SDS011;9208;42.688;23.404;2023-04-25T07:56:35;4.57;;;4.17;;
18166;SDS011;9208;42.688;23.404;2023-04-25T07:59:00;3.87;;;3.50;;
18166;SDS011;9208;42.688;23.404;2023-04-25T08:01:26;3.70;;;3.40;;
18166;SDS011;9208;42.688;23.404;2023-04-25T08:03:52;4.93;;;3.90;;
18166;SDS011;9208;42.688;23.404;2023-04-25T08:06:17;3.90;;;3.60;;
18166;SDS011;9208;42.688;23.404;2023-04-25T08:08:43;3.83;;;3.43;;
18166;SDS011;9208;42.688;23.404;2023-04-25T08:11:09;3.77;;;3.33;;
18166;SDS011;9208;42.688;23.404;2023-04-25T08:13:35;3.50;;;3.30;;
18166;SDS011;9208;42.688;23.404;2023-04-25T08:16:01;3.87;;;3.60;;
18166;SDS011;9208;42.688;23.404;2023-04-25T08:18:26;3.50;;;3.20;;
18166;SDS011;9208;42.688;23.404;2023-04-25T08:20:51;3.87;;;3.53;;
18166;SDS011;9208;42.688;23.404;2023-04-25T08:23:17;4.13;;;3.70;;
18166;SDS011;9208;42.688;23.404;2023-04-25T08:25:42;3.80;;;3.50;;
18166;SDS011;9208;42.688;23.404;2023-04-25T08:28:08;4.17;;;3.77;;
18166;SDS011;9208;42.688;23.404;2023-04-25T08:30:33;4.20;;;3.90;;
18166;SDS011;9208;42.688;23.404;2023-04-25T08:32:59;3.60;;;3.30;;
18166;SDS011;9208;42.688;23.404;2023-04-25T08:35:24;3.50;;;3.20;;
18166;SDS011;9208;42.688;23.404;2023-04-25T08:37:49;4.30;;;3.53;;
18166;SDS011;9208;42.688;23.404;2023-04-25T08:40:16;4.30;;;3.90;;
18166;SDS011;9208;42.688;23.404;2023-04-25T08:42:42;5.03;;;3.80;;
18166;SDS011;9208;42.688;23.404;2023-04-25T08:45:08;4.67;;;4.17;;
18166;SDS011;9208;42.688;23.404;2023-04-25T08:47:34;4.23;;;3.60;;
18166;SDS011;9208;42.688;23.404;2023-04-25T08:50:03;4.30;;;4.00;;
18166;SDS011;9208;42.688;23.404;2023-04-25T08:52:32;4.30;;;3.87;;
18166;SDS011;9208;42.688;23.404;2023-04-25T08:55:02;5.37;;;4.87;;
18166;SDS011;9208;42.688;23.404;2023-04-25T08:57:29;8.93;;;8.10;;
18166;SDS011;9208;42.688;23.404;2023-04-25T08:59:56;9.73;;;7.10;;
18166;SDS011;9208;42.688;23.404;2023-04-25T09:02:23;7.63;;;6.63;;
18166;SDS011;9208;42.688;23.404;2023-04-25T09:04:50;8.23;;;7.43;;
18166;SDS011;9208;42.688;23.404;2023-04-25T09:07:15;7.30;;;6.20;;
18166;SDS011;9208;42.688;23.404;2023-04-25T09:09:43;5.70;;;5.20;;
18166;SDS011;9208;42.688;23.404;2023-04-25T09:12:09;5.10;;;4.70;;
18166;SDS011;9208;42.688;23.404;2023-04-25T09:14:35;5.60;;;4.50;;
18166;SDS011;9208;42.688;23.404;2023-04-25T09:17:01;5.00;;;4.50;;
18166;SDS011;9208;42.688;23.404;2023-04-25T09:19:30;5.23;;;4.83;;
18166;SDS011;9208;42.688;23.404;2023-04-25T09:21:57;5.63;;;5.13;;
18166;SDS011;9208;42.688;23.404;2023-04-25T09:24:32;5.17;;;4.63;;
18166;SDS011;9208;42.688;23.404;2023-04-25T09:26:57;4.40;;;4.00;;
18166;SDS011;9208;42.688;23.404;2023-04-25T09:29:33;4.57;;;4.20;;
18166;SDS011;9208;42.688;23.404;2023-04-25T09:32:32;5.80;;;3.87;;
18166;SDS011;9208;42.688;23.404;2023-04-25T09:34:55;5.93;;;5.43;;
18166;SDS011;9208;42.688;23.404;2023-04-25T09:37:22;6.23;;;5.73;;
18166;SDS011;9208;42.688;23.404;2023-04-25T09:39:55;5.53;;;4.83;;
18166;SDS011;9208;42.688;23.404;2023-04-25T09:42:24;5.63;;;4.80;;
18166;SDS011;9208;42.688;23.404;2023-04-25T09:44:52;4.80;;;3.80;;
18166;SDS011;9208;42.688;23.404;2023-04-25T09:47:18;3.97;;;3.60;;
18166;SDS011;9208;42.688;23.404;2023-04-25T09:49:46;4.10;;;3.80;;
18166;SDS011;9208;42.688;23.404;2023-04-25T09:52:19;3.80;;;3.50;;
18166;SDS011;9208;42.688;23.404;2023-04-25T09:54:46;3.40;;;3.10;;
18166;SDS011;9208;42.688;23.404;2023-04-25T09:57:17;3.77;;;3.47;;
18166;SDS011;9208;42.688;23.404;2023-04-25T09:59:45;3.63;;;3.33;;
18166;SDS011;9208;42.688;23.404;2023-04-25T10:02:12;3.53;;;3.23;;
18166;SDS011;9208;42.688;23.404;2023-04-25T10:04:39;3.10;;;2.90;;
18166;SDS011;9208;42.688;23.404;2023-04-25T10:07:06;2.93;;;2.73;;
18166;SDS011;9208;42.688;23.404;2023-04-25T10:09:33;2.80;;;2.60;;
18166;SDS011;9208;42.688;23.404;2023-04-25T10:12:02;3.03;;;2.80;;
18166;SDS011;9208;42.688;23.404;2023-04-25T10:14:31;8.23;;;3.33;;
18166;SDS011;9208;42.688;23.404;2023-04-25T10:16:57;4.57;;;2.67;;
18166;SDS011;9208;42.688;23.404;2023-04-25T10:19:24;3.67;;;2.80;;
18166;SDS011;9208;42.688;23.404;2023-04-25T10:21:52;2.90;;;2.63;;
18166;SDS011;9208;42.688;23.404;2023-04-25T10:24:20;3.13;;;2.53;;
18166;SDS011;9208;42.688;23.404;2023-04-25T10:26:47;5.73;;;3.30;;
18166;SDS011;9208;42.688;23.404;2023-04-25T10:29:14;4.30;;;3.00;;
18166;SDS011;9208;42.688;23.404;2023-04-25T10:31:47;3.30;;;2.60;;
18166;SDS011;9208;42.688;23.404;2023-04-25T10:34:12;4.07;;;3.10;;
18166;SDS011;9208;42.688;23.404;2023-04-25T10:36:38;7.07;;;3.47;;
18166;SDS011;9208;42.688;23.404;2023-04-25T10:39:04;2.97;;;2.50;;
18166;SDS011;9208;42.688;23.404;2023-04-25T10:41:46;2.30;;;2.10;;
18166;SDS011;9208;42.688;23.404;2023-04-25T10:44:13;2.37;;;2.17;;
18166;SDS011;9208;42.688;23.404;2023-04-25T10:46:38;1.53;;;1.43;;
18166;SDS011;9208;42.688;23.404;2023-04-25T10:49:04;2.10;;;1.00;;
18166;SDS011;9208;42.688;23.404;2023-04-25T10:51:30;2.03;;;1.30;;
18166;SDS011;9208;42.688;23.404;2023-04-25T10:59:06;1.37;;;1.23;;
18166;SDS011;9208;42.688;23.404;2023-04-25T11:01:40;4.77;;;2.03;;
18166;SDS011;9208;42.688;23.404;2023-04-25T11:04:23;2.23;;;1.60;;
18166;SDS011;9208;42.688;23.404;2023-04-25T11:07:04;2.77;;;1.87;;
18166;SDS011;9208;42.688;23.404;2023-04-25T11:09:39;5.33;;;2.00;;
18166;SDS011;9208;42.688;23.404;2023-04-25T11:12:07;4.67;;;2.10;;
18166;SDS011;9208;42.688;23.404;2023-04-25T11:14:33;3.30;;;2.33;;
18166;SDS011;9208;42.688;23.404;2023-04-25T11:16:59;3.30;;;2.30;;
18166;SDS011;9208;42.688;23.404;2023-04-25T11:19:27;3.03;;;1.47;;
18166;SDS011;9208;42.688;23.404;2023-04-25T11:21:57;2.10;;;1.50;;
18166;SDS011;9208;42.688;23.404;2023-04-25T11:24:33;7.03;;;1.50;;
18166;SDS011;9208;42.688;23.404;2023-04-25T11:27:00;2.03;;;1.60;;
18166;SDS011;9208;42.688;23.404;2023-04-25T11:29:29;1.47;;;1.37;;
18166;SDS011;9208;42.688;23.404;2023-04-25T11:31:56;1.33;;;1.20;;
18166;SDS011;9208;42.688;23.404;2023-04-25T11:34:23;1.40;;;1.30;;
18166;SDS011;9208;42.688;23.404;2023-04-25T11:36:49;1.00;;;0.90;;
18166;SDS011;9208;42.688;23.404;2023-04-25T11:39:15;2.27;;;1.40;;
18166;SDS011;9208;42.688;23.404;2023-04-25T11:41:41;1.00;;;1.00;;
18166;SDS011;9208;42.688;23.404;2023-04-25T11:44:07;1.37;;;1.10;;
18166;SDS011;9208;42.688;23.404;2023-04-25T11:46:35;5.77;;;1.57;;
18166;SDS011;9208;42.688;23.404;2023-04-25T11:49:02;5.87;;;1.30;;
18166;SDS011;9208;42.688;23.404;2023-04-25T11:51:29;2.33;;;1.70;;
18166;SDS011;9208;42.688;23.404;2023-04-25T11:53:55;6.60;;;5.37;;
18166;SDS011;9208;42.688;23.404;2023-04-25T11:56:21;6.20;;;3.60;;
18166;SDS011;9208;42.688;23.404;2023-04-25T11:58:53;1.93;;;1.80;;
18166;SDS011;9208;42.688;23.404;2023-04-25T12:01:27;1.97;;;1.40;;
18166;SDS011;9208;42.688;23.404;2023-04-25T12:03:53;3.20;;;1.40;;
18166;SDS011;9208;42.688;23.404;2023-04-25T12:06:19;1.00;;;1.00;;
18166;SDS011;9208;42.688;23.404;2023-04-25T12:09:18;1.10;;;1.10;;
18166;SDS011;9208;42.688;23.404;2023-04-25T12:11:45;1.10;;;1.10;;
18166;SDS011;9208;42.688;23.404;2023-04-25T12:14:12;2.87;;;1.40;;
18166;SDS011;9208;42.688;23.404;2023-04-25T12:16:47;1.13;;;1.03;;
18166;SDS011;9208;42.688;23.404;2023-04-25T12:19:14;1.10;;;1.10;;
18166;SDS011;9208;42.688;23.404;2023-04-25T12:21:40;2.37;;;1.10;;
18166;SDS011;9208;42.688;23.404;2023-04-25T12:24:12;1.30;;;1.00;;
18166;SDS011;9208;42.688;23.404;2023-04-25T12:26:52;4.77;;;1.20;;
18166;SDS011;9208;42.688;23.404;2023-04-25T12:29:24;0.93;;;0.70;;
18166;SDS011;9208;42.688;23.404;2023-04-25T12:31:51;0.97;;;0.87;;
18166;SDS011;9208;42.688;23.404;2023-04-25T12:34:18;1.13;;;0.90;;
18166;SDS011;9208;42.688;23.404;2023-04-25T12:36:44;1.13;;;1.03;;
18166;SDS011;9208;42.688;23.404;2023-04-25T12:39:17;0.80;;;0.80;;
18166;SDS011;9208;42.688;23.404;2023-04-25T12:41:44;1.13;;;0.80;;
18166;SDS011;9208;42.688;23.404;2023-04-25T12:44:10;3.33;;;1.30;;
18166;SDS011;9208;42.688;23.404;2023-04-25T12:46:36;3.10;;;1.30;;
18166;SDS011;9208;42.688;23.404;2023-04-25T12:49:02;3.70;;;2.90;;
18166;SDS011;9208;42.688;23.404;2023-04-25T12:51:29;4.93;;;3.07;;
18166;SDS011;9208;42.688;23.404;2023-04-25T12:53:54;2.27;;;1.53;;
18166;SDS011;9208;42.688;23.404;2023-04-25T12:56:20;2.20;;;1.30;;
18166;SDS011;9208;42.688;23.404;2023-04-25T12:58:46;1.83;;;1.20;;
18166;SDS011;9208;42.688;23.404;2023-04-25T13:01:13;1.67;;;1.20;;
18166;SDS011;9208;42.688;23.404;2023-04-25T13:03:38;1.30;;;1.10;;
18166;SDS011;9208;42.688;23.404;2023-04-25T13:06:04;5.23;;;1.90;;
18166;SDS011;9208;42.688;23.404;2023-04-25T13:08:30;1.20;;;1.10;;
18166;SDS011;9208;42.688;23.404;2023-04-25T13:10:55;1.20;;;1.10;;
18166;SDS011;9208;42.688;23.404;2023-04-25T13:13:21;2.10;;;1.73;;
18166;SDS011;9208;42.688;23.404;2023-04-25T13:15:47;3.00;;;2.43;;
18166;SDS011;9208;42.688;23.404;2023-04-25T13:18:12;3.43;;;2.43;;
18166;SDS011;9208;42.688;23.404;2023-04-25T13:20:38;4.70;;;2.40;;
18166;SDS011;9208;42.688;23.404;2023-04-25T13:23:03;5.17;;;3.40;;
18166;SDS011;9208;42.688;23.404;2023-04-25T13:25:29;7.57;;;3.80;;
18166;SDS011;9208;42.688;23.404;2023-04-25T13:27:54;6.87;;;4.43;;
18166;SDS011;9208;42.688;23.404;2023-04-25T13:30:20;4.23;;;3.20;;
18166;SDS011;9208;42.688;23.404;2023-04-25T13:32:46;2.40;;;2.20;;
18166;SDS011;9208;42.688;23.404;2023-04-25T13:35:12;3.73;;;1.97;;
18166;SDS011;9208;42.688;23.404;2023-04-25T13:37:38;3.23;;;2.20;;
18166;SDS011;9208;42.688;23.404;2023-04-25T13:40:08;4.23;;;1.70;;
18166;SDS011;9208;42.688;23.404;2023-04-25T13:42:36;4.23;;;2.33;;
18166;SDS011;9208;42.688;23.404;2023-04-25T13:45:05;2.23;;;1.80;;
18166;SDS011;9208;42.688;23.404;2023-04-25T13:47:31;5.53;;;2.73;;
18166;SDS011;9208;42.688;23.404;2023-04-25T13:49:57;4.20;;;2.83;;
18166;SDS011;9208;42.688;23.404;2023-04-25T13:52:22;3.57;;;2.33;;
18166;SDS011;9208;42.688;23.404;2023-04-25T13:54:49;2.83;;;1.90;;
18166;SDS011;9208;42.688;23.404;2023-04-25T13:57:15;2.00;;;1.80;;
18166;SDS011;9208;42.688;23.404;2023-04-25T13:59:41;2.13;;;1.80;;
18166;SDS011;9208;42.688;23.404;2023-04-25T14:02:06;2.50;;;2.30;;
18166;SDS011;9208;42.688;23.404;2023-04-25T14:04:32;2.67;;;2.10;;
18166;SDS011;9208;42.688;23.404;2023-04-25T14:06:58;3.17;;;2.00;;
18166;SDS011;9208;42.688;23.404;2023-04-25T14:09:23;2.97;;;2.10;;
18166;SDS011;9208;42.688;23.404;2023-04-25T14:11:53;4.23;;;2.10;;
18166;SDS011;9208;42.688;23.404;2023-04-25T14:14:20;2.27;;;2.07;;
18166;SDS011;9208;42.688;23.404;2023-04-25T14:16:46;2.43;;;2.10;;
18166;SDS011;9208;42.688;23.404;2023-04-25T14:19:15;3.43;;;1.83;;
18166;SDS011;9208;42.688;23.404;2023-04-25T14:21:41;2.27;;;2.07;;
18166;SDS011;9208;42.688;23.404;2023-04-25T14:24:08;2.07;;;1.87;;
18166;SDS011;9208;42.688;23.404;2023-04-25T14:26:34;3.23;;;1.87;;
18166;SDS011;9208;42.688;23.404;2023-04-25T14:29:00;2.20;;;1.70;;
18166;SDS011;9208;42.688;23.404;2023-04-25T14:31:26;2.10;;;1.50;;
18166;SDS011;9208;42.688;23.404;2023-04-25T14:33:52;2.60;;;1.60;;
18166;SDS011;9208;42.688;23.404;2023-04-25T14:36:18;1.40;;;1.30;;
18166;SDS011;9208;42.688;23.404;2023-04-25T14:38:43;2.40;;;1.40;;
18166;SDS011;9208;42.688;23.404;2023-04-25T14:41:09;1.17;;;1.07;;
18166;SDS011;9208;42.688;23.404;2023-04-25T14:43:35;1.50;;;1.40;;
18166;SDS011;9208;42.688;23.404;2023-04-25T14:46:01;1.90;;;1.43;;
18166;SDS011;9208;42.688;23.404;2023-04-25T14:48:30;2.00;;;1.90;;
18166;SDS011;9208;42.688;23.404;2023-04-25T14:50:55;1.80;;;1.70;;